createdAt,value
2023-04-24T00:00:32.498Z,21.25
2023-04-24T00:05:31.802Z,21.31
2023-04-24T00:10:31.090Z,19.59
2023-04-24T00:15:30.418Z,19.06
2023-04-24T00:20:28.713Z,19.00
2023-04-24T00:25:28.021Z,18.45
2023-04-24T00:30:29.291Z,23.95
2023-04-24T00:35:26.570Z,23.91
2023-04-24T00:40:25.872Z,27.24
2023-04-24T00:45:26.125Z,25.97
2023-04-24T00:50:24.384Z,26.62
2023-04-24T00:55:23.657Z,27.93
2023-04-24T01:00:22.943Z,27.75
2023-04-24T01:05:22.241Z,27.81
2023-04-24T01:10:24.606Z,27.27
2023-04-24T01:15:20.688Z,27.03
2023-04-24T01:20:21.026Z,27.09
2023-04-24T01:25:20.126Z,26.87
2023-04-24T01:30:18.421Z,26.52
2023-04-24T01:35:17.721Z,26.29
2023-04-24T01:40:18.015Z,26.10
2023-04-24T01:45:16.318Z,25.67
2023-04-24T01:50:15.587Z,25.60
2023-04-24T01:55:14.867Z,25.43
2023-04-24T02:00:15.169Z,25.18
2023-04-24T02:05:14.440Z,25.10
2023-04-24T02:10:12.683Z,24.73
2023-04-24T02:15:13.949Z,23.94
2023-04-24T02:20:11.223Z,24.18
2023-04-24T02:25:10.516Z,24.24
2023-04-24T02:30:11.797Z,24.09
2023-04-24T02:35:10.117Z,23.94
2023-04-24T02:40:09.400Z,23.79
2023-04-24T02:45:08.635Z,23.84
2023-04-24T02:50:07.938Z,23.75
2023-04-24T02:55:06.210Z,23.68
2023-04-24T03:00:07.512Z,23.61
2023-04-24T03:05:06.789Z,23.48
2023-04-24T03:10:04.099Z,23.42
2023-04-24T03:15:03.436Z,23.31
2023-04-24T03:20:03.718Z,23.13
2023-04-24T03:25:03.028Z,22.95
2023-04-24T03:30:02.337Z,22.88
2023-04-24T03:35:01.592Z,22.91
2023-04-24T03:40:01.882Z,22.92
2023-04-24T03:44:59.143Z,22.90
2023-04-24T03:49:59.403Z,22.88
2023-04-24T03:54:58.668Z,22.75
2023-04-24T03:59:57.965Z,22.18
2023-04-24T04:04:57.325Z,22.39
2023-04-24T04:09:56.462Z,22.51
2023-04-24T04:14:55.716Z,22.57
2023-04-24T04:19:52.979Z,22.17
2023-04-24T04:24:53.313Z,22.39
2023-04-24T04:29:53.549Z,22.42
2023-04-24T04:34:53.816Z,22.33
2023-04-24T04:39:53.102Z,22.30
2023-04-24T04:44:52.397Z,22.06
2023-04-24T04:49:50.711Z,22.22
2023-04-24T04:54:49.008Z,22.31
2023-04-24T04:59:48.293Z,22.21
2023-04-24T05:04:48.750Z,22.21
2023-04-24T05:09:46.774Z,22.14
2023-04-24T05:14:46.056Z,22.12
2023-04-24T05:19:45.635Z,22.17
2023-04-24T05:24:46.656Z,22.12
2023-04-24T05:29:45.108Z,22.12
2023-04-24T05:34:44.179Z,22.07
2023-04-24T05:39:44.623Z,21.99
2023-04-24T05:44:42.622Z,21.67
2023-04-24T05:49:42.137Z,21.49
2023-04-24T05:54:39.189Z,21.50
2023-04-24T05:59:40.540Z,21.69
2023-04-24T06:04:39.799Z,21.29
2023-04-24T06:09:37.946Z,20.58
2023-04-24T06:14:38.185Z,21.22
2023-04-24T06:19:36.390Z,20.79
2023-04-24T06:24:35.639Z,20.98
2023-04-24T06:29:34.957Z,21.07
2023-04-24T06:34:34.181Z,20.99
2023-04-24T06:39:34.428Z,20.92
2023-04-24T06:44:33.730Z,20.54
2023-04-24T06:49:31.973Z,20.62
2023-04-24T06:54:33.229Z,20.62
2023-04-24T06:59:31.425Z,20.84
2023-04-24T07:04:30.967Z,20.31
2023-04-24T07:09:28.976Z,20.50
2023-04-24T07:14:29.149Z,20.39
2023-04-24T07:19:28.269Z,20.41
2023-04-24T07:29:26.803Z,19.71
2023-04-24T07:34:25.012Z,20.03
2023-04-24T07:39:24.185Z,19.88
2023-04-24T07:44:25.332Z,19.87
2023-04-24T07:49:23.458Z,20.61
2023-04-24T07:54:21.621Z,20.80
2023-04-24T07:59:20.800Z,21.22
2023-04-24T08:04:21.161Z,21.14
2023-04-24T08:09:20.133Z,20.52
2023-04-24T08:14:18.373Z,20.55
2023-04-24T08:19:17.594Z,21.19
2023-04-24T08:24:16.855Z,21.32
2023-04-24T08:29:17.079Z,21.22
2023-04-24T08:34:17.342Z,21.04
2023-04-24T08:39:14.578Z,21.10
2023-04-24T08:44:15.835Z,21.32
2023-04-24T08:49:15.119Z,21.01
2023-04-24T08:54:12.378Z,20.80
2023-04-24T08:59:11.652Z,20.41
2023-04-24T09:04:11.171Z,20.06
2023-04-24T09:09:11.097Z,20.11
2023-04-24T09:14:09.355Z,20.62
2023-04-24T09:19:08.644Z,20.87
2023-04-24T09:24:09.907Z,21.42
2023-04-24T09:29:07.071Z,22.55
2023-04-24T09:34:08.208Z,22.61
2023-04-24T09:39:06.545Z,22.79
2023-04-24T09:44:05.833Z,22.75
2023-04-24T09:49:04.122Z,22.33
2023-04-24T09:54:03.416Z,21.99
2023-04-24T09:59:01.812Z,21.65
2023-04-24T10:04:01.905Z,20.99
2023-04-24T10:09:02.238Z,20.43
2023-04-24T10:14:01.500Z,20.48
2023-04-24T10:18:59.815Z,20.08
2023-04-24T10:23:59.115Z,20.06
2023-04-24T10:28:57.432Z,20.28
2023-04-24T10:33:58.722Z,20.97
2023-04-24T10:38:57.029Z,21.04
2023-04-24T10:43:57.355Z,20.84
2023-04-24T10:48:56.652Z,20.73
2023-04-24T10:53:55.907Z,20.58
2023-04-24T10:58:55.238Z,19.95
2023-04-24T11:03:53.634Z,20.24
2023-04-24T11:08:53.748Z,20.43
2023-04-24T11:13:52.070Z,20.29
2023-04-24T11:18:51.162Z,20.39
2023-04-24T11:23:51.438Z,20.94
2023-04-24T11:28:49.713Z,21.24
2023-04-24T11:33:48.995Z,21.12
2023-04-24T11:38:48.272Z,21.83
2023-04-24T11:43:47.558Z,22.36
2023-04-24T11:48:48.834Z,21.90
2023-04-24T11:53:47.719Z,22.20
2023-04-24T11:58:45.326Z,22.55
2023-04-24T12:03:44.731Z,21.92
2023-04-24T12:08:43.983Z,21.98
2023-04-24T12:13:43.311Z,21.67
2023-04-24T12:18:43.387Z,21.46
2023-04-24T12:23:40.672Z,21.34
2023-04-24T12:28:41.974Z,21.25
2023-04-24T12:33:40.426Z,20.57
2023-04-24T12:38:39.445Z,20.79
2023-04-24T12:43:39.796Z,19.87
2023-04-24T12:48:38.986Z,19.83
2023-04-24T12:53:36.123Z,20.38
2023-04-24T12:58:36.415Z,20.32
2023-04-24T13:03:35.848Z,19.84
2023-04-24T13:08:34.942Z,20.17
2023-04-24T13:13:34.210Z,19.86
2023-04-24T13:18:33.436Z,19.88
2023-04-24T13:23:35.429Z,20.01
2023-04-24T13:28:32.025Z,20.08
2023-04-24T13:33:31.284Z,20.33
2023-04-24T13:38:32.604Z,20.69
2023-04-24T13:43:30.878Z,20.82
2023-04-24T13:48:29.145Z,20.62
2023-04-24T13:53:28.421Z,21.10
2023-04-24T13:58:28.678Z,20.92
2023-04-24T14:03:27.213Z,20.58
2023-04-24T14:08:27.199Z,21.10
2023-04-24T14:13:25.464Z,21.13
2023-04-24T14:18:24.752Z,20.73
2023-04-24T14:23:24.041Z,20.77
2023-04-24T14:28:24.546Z,21.09
2023-04-24T14:33:23.652Z,21.32
2023-04-24T14:38:22.938Z,21.29
2023-04-24T14:43:22.214Z,21.03
2023-04-24T14:48:20.474Z,20.73
2023-04-24T14:53:20.753Z,20.67
2023-04-24T14:58:19.047Z,20.29
2023-04-24T15:03:19.538Z,20.08
2023-04-24T15:08:17.507Z,20.31
2023-04-24T15:13:16.796Z,20.11
2023-04-24T15:18:16.114Z,20.29
2023-04-24T15:23:16.382Z,20.48
2023-04-24T15:28:14.731Z,20.80
2023-04-24T15:33:13.847Z,20.94
2023-04-24T15:38:14.155Z,20.91
2023-04-24T15:43:13.412Z,21.12
2023-04-24T15:48:11.695Z,20.84
2023-04-24T15:53:10.959Z,20.89
2023-04-24T15:58:10.267Z,20.95
2023-04-24T16:03:10.902Z,20.91
2023-04-24T16:08:09.833Z,20.42
2023-04-24T16:13:08.905Z,20.43
2023-04-24T16:18:08.255Z,21.31
2023-04-24T16:23:06.519Z,22.67
2023-04-24T16:28:06.846Z,22.90
2023-04-24T16:33:05.329Z,24.15
2023-04-24T16:38:05.396Z,24.10
2023-04-24T16:43:03.510Z,25.21
2023-04-24T16:48:03.877Z,25.73
2023-04-24T16:53:02.955Z,26.21
2023-04-24T16:58:02.244Z,25.73
2023-04-24T17:03:01.995Z,25.85
2023-04-24T17:08:00.902Z,25.27
2023-04-24T17:12:59.049Z,25.15
2023-04-24T17:17:58.699Z,24.99
2023-04-24T17:22:58.008Z,25.10
2023-04-24T17:27:58.045Z,25.03
2023-04-24T17:32:56.446Z,25.05
2023-04-24T17:37:57.484Z,24.84
2023-04-24T17:42:55.985Z,24.61
2023-04-24T17:47:54.087Z,23.94
2023-04-24T17:52:54.254Z,23.47
2023-04-24T17:57:51.535Z,23.16
2023-04-24T18:02:56.306Z,23.07
2023-04-24T18:07:52.182Z,24.08
2023-04-24T18:12:51.602Z,24.73
2023-04-24T18:17:49.969Z,24.45
2023-04-24T18:22:49.020Z,23.47
2023-04-24T18:27:47.945Z,22.57
2023-04-24T18:32:47.598Z,25.17
2023-04-24T18:37:46.734Z,25.36
2023-04-24T18:42:48.071Z,23.05
2023-04-24T18:47:46.012Z,22.51
2023-04-24T18:52:44.359Z,22.55
2023-04-24T18:57:43.777Z,22.25
2023-04-24T19:02:54.899Z,23.00
2023-04-24T19:07:41.308Z,23.12
2023-04-24T19:12:41.429Z,23.57
2023-04-24T19:17:41.758Z,23.12
2023-04-24T19:22:53.423Z,23.13
2023-04-24T19:27:39.039Z,23.48
2023-04-24T19:32:38.384Z,22.61
2023-04-24T19:37:37.171Z,22.52
2023-04-24T19:42:43.731Z,22.06
2023-04-24T19:47:36.118Z,23.46
2023-04-24T19:52:36.266Z,22.92
2023-04-24T19:57:37.757Z,22.40
2023-04-24T20:02:34.623Z,22.64
2023-04-24T20:07:32.814Z,22.67
2023-04-24T20:12:32.079Z,22.97
2023-04-24T20:17:33.157Z,23.12
2023-04-24T20:22:30.436Z,22.77
2023-04-24T20:27:29.730Z,22.61
2023-04-24T20:32:29.062Z,22.67
2023-04-24T20:37:28.242Z,22.79
2023-04-24T20:42:27.405Z,22.68
2023-04-24T20:47:26.711Z,22.49
2023-04-24T20:52:26.847Z,22.10
2023-04-24T20:57:25.168Z,22.09
2023-04-24T21:02:24.600Z,22.35
2023-04-24T21:07:24.734Z,21.94
2023-04-24T21:12:24.017Z,22.07
2023-04-24T21:17:23.359Z,21.86
2023-04-24T21:22:24.627Z,22.58
2023-04-24T21:27:21.915Z,22.06
2023-04-24T21:32:20.337Z,22.12
2023-04-24T21:37:20.507Z,22.30
2023-04-24T21:42:18.796Z,22.05
2023-04-24T21:47:19.091Z,23.09
2023-04-24T21:52:17.351Z,24.39
2023-04-24T21:57:17.652Z,24.60
2023-04-24T22:02:16.035Z,24.84
2023-04-24T22:07:16.130Z,24.77
2023-04-24T22:12:14.397Z,25.06
2023-04-24T22:17:16.803Z,25.03
2023-04-24T22:22:13.875Z,25.64
2023-04-24T22:27:13.187Z,25.92
2023-04-24T22:32:11.478Z,25.57
2023-04-24T22:37:11.775Z,25.64
2023-04-24T22:42:12.054Z,24.77
2023-04-24T22:47:09.443Z,24.31
2023-04-24T22:52:08.531Z,24.18
2023-04-24T22:57:06.814Z,24.90
2023-04-24T23:02:08.138Z,24.81
2023-04-24T23:07:06.278Z,25.17
2023-04-24T23:12:05.580Z,25.09
2023-04-24T23:17:04.880Z,24.73
2023-04-24T23:22:04.162Z,24.68
2023-04-24T23:27:04.479Z,24.30
2023-04-24T23:32:03.749Z,24.12
2023-04-24T23:37:02.047Z,23.79
2023-04-24T23:42:01.343Z,23.19
2023-04-24T23:47:00.624Z,22.83
2023-04-24T23:51:59.939Z,22.40
2023-04-24T23:56:59.221Z,22.05
